sensor_id;sensor_type;location;lat;lon;timestamp;pressure;altitude;pressure_sealevel;temperature;humidity
71149;BME280;59072;42.144;25.200;2023-02-13T00:02:23;102064.31;;;3.83;59.98
71149;BME280;59072;42.144;25.200;2023-02-13T00:04:48;102048.28;;;3.63;60.07
71149;BME280;59072;42.144;25.200;2023-02-13T00:07:13;102048.84;;;3.46;59.92
71149;BME280;59072;42.144;25.200;2023-02-13T00:09:39;102065.16;;;3.40;61.16
71149;BME280;59072;42.144;25.200;2023-02-13T00:12:06;102071.69;;;3.68;60.33
71149;BME280;59072;42.144;25.200;2023-02-13T00:14:38;102078.50;;;3.71;59.89
71149;BME280;59072;42.144;25.200;2023-02-13T00:17:04;102081.22;;;3.37;61.16
71149;BME280;59072;42.144;25.200;2023-02-13T00:19:30;102063.72;;;3.25;61.21
71149;BME280;59072;42.144;25.200;2023-02-13T00:21:55;102073.22;;;3.05;62.13
71149;BME280;59072;42.144;25.200;2023-02-13T00:24:21;102085.56;;;3.15;62.47
71149;BME280;59072;42.144;25.200;2023-02-13T00:26:46;102062.81;;;3.03;62.31
71149;BME280;59072;42.144;25.200;2023-02-13T00:29:11;102085.94;;;3.11;62.53
71149;BME280;59072;42.144;25.200;2023-02-13T00:31:37;102088.44;;;2.78;63.42
71149;BME280;59072;42.144;25.200;2023-02-13T00:34:03;102084.59;;;2.94;62.66
71149;BME280;59072;42.144;25.200;2023-02-13T00:36:28;102090.34;;;3.10;62.64
71149;BME280;59072;42.144;25.200;2023-02-13T00:38:54;102090.81;;;3.27;61.83
71149;BME280;59072;42.144;25.200;2023-02-13T00:41:19;102087.22;;;3.28;61.70
71149;BME280;59072;42.144;25.200;2023-02-13T00:43:46;102076.69;;;3.05;61.91
71149;BME280;59072;42.144;25.200;2023-02-13T00:46:12;102062.31;;;3.09;61.97
71149;BME280;59072;42.144;25.200;2023-02-13T00:48:38;102076.19;;;3.22;61.23
71149;BME280;59072;42.144;25.200;2023-02-13T00:51:07;102089.63;;;3.19;61.78
71149;BME280;59072;42.144;25.200;2023-02-13T00:53:34;102077.53;;;3.06;61.76
71149;BME280;59072;42.144;25.200;2023-02-13T00:56:00;102089.63;;;2.97;62.36
71149;BME280;59072;42.144;25.200;2023-02-13T00:58:28;102063.50;;;2.71;62.83
71149;BME280;59072;42.144;25.200;2023-02-13T01:00:54;102065.75;;;2.53;63.31
71149;BME280;59072;42.144;25.200;2023-02-13T01:03:22;102083.41;;;2.87;62.77
71149;BME280;59072;42.144;25.200;2023-02-13T01:05:48;102082.06;;;2.70;63.14
71149;BME280;59072;42.144;25.200;2023-02-13T01:08:15;102082.19;;;2.79;62.94
71149;BME280;59072;42.144;25.200;2023-02-13T01:10:41;102083.38;;;2.64;63.60
71149;BME280;59072;42.144;25.200;2023-02-13T01:13:08;102078.13;;;2.29;64.98
71149;BME280;59072;42.144;25.200;2023-02-13T01:15:34;102082.59;;;2.04;66.42
71149;BME280;59072;42.144;25.200;2023-02-13T01:17:59;102067.06;;;2.12;65.61
71149;BME280;59072;42.144;25.200;2023-02-13T01:20:26;102078.22;;;2.16;65.99
71149;BME280;59072;42.144;25.200;2023-02-13T01:22:52;102066.94;;;2.03;64.83
71149;BME280;59072;42.144;25.200;2023-02-13T01:25:17;102079.22;;;2.02;65.45
71149;BME280;59072;42.144;25.200;2023-02-13T01:27:43;102085.69;;;1.50;67.45
71149;BME280;59072;42.144;25.200;2023-02-13T01:30:10;102067.72;;;1.31;67.44
71149;BME280;59072;42.144;25.200;2023-02-13T01:32:39;102081.78;;;1.55;66.86
71149;BME280;59072;42.144;25.200;2023-02-13T01:35:05;102086.97;;;1.68;66.87
71149;BME280;59072;42.144;25.200;2023-02-13T01:37:31;102078.50;;;1.52;66.58
71149;BME280;59072;42.144;25.200;2023-02-13T01:39:57;102092.78;;;1.60;67.09
71149;BME280;59072;42.144;25.200;2023-02-13T01:42:30;102076.13;;;1.36;67.27
71149;BME280;59072;42.144;25.200;2023-02-13T01:47:44;102069.28;;;1.46;67.06
71149;BME280;59072;42.144;25.200;2023-02-13T01:52:56;102080.38;;;1.26;67.81
71149;BME280;59072;42.144;25.200;2023-02-13T01:55:24;102094.78;;;1.07;68.65
71149;BME280;59072;42.144;25.200;2023-02-13T01:58:00;102096.72;;;0.92;68.33
71149;BME280;59072;42.144;25.200;2023-02-13T02:00:27;102103.84;;;0.77;69.03
71149;BME280;59072;42.144;25.200;2023-02-13T02:02:58;102100.38;;;0.77;69.48
71149;BME280;59072;42.144;25.200;2023-02-13T02:05:26;102076.75;;;0.77;68.47
71149;BME280;59072;42.144;25.200;2023-02-13T02:07:54;102100.16;;;0.93;68.63
71149;BME280;59072;42.144;25.200;2023-02-13T02:10:21;102087.66;;;0.84;68.33
71149;BME280;59072;42.144;25.200;2023-02-13T02:13:00;102109.63;;;0.83;69.20
71149;BME280;59072;42.144;25.200;2023-02-13T02:15:28;102109.50;;;0.71;69.50
71149;BME280;59072;42.144;25.200;2023-02-13T02:17:54;102088.19;;;0.63;68.48
71149;BME280;59072;42.144;25.200;2023-02-13T02:25:58;102126.50;;;0.53;69.80
71149;BME280;59072;42.144;25.200;2023-02-13T02:37:00;102135.31;;;0.39;70.60
71149;BME280;59072;42.144;25.200;2023-02-13T02:39:31;102133.19;;;0.31;71.41
71149;BME280;59072;42.144;25.200;2023-02-13T02:42:14;102131.63;;;0.02;72.96
71149;BME280;59072;42.144;25.200;2023-02-13T02:45:08;102125.16;;;0.20;71.76
71149;BME280;59072;42.144;25.200;2023-02-13T02:50:41;102135.25;;;0.26;70.91
71149;BME280;59072;42.144;25.200;2023-02-13T02:53:30;102125.44;;;0.03;72.18
71149;BME280;59072;42.144;25.200;2023-02-13T02:56:08;102136.75;;;0.30;71.46
71149;BME280;59072;42.144;25.200;2023-02-13T02:58:45;102147.41;;;-0.13;72.96
71149;BME280;59072;42.144;25.200;2023-02-13T03:01:31;102126.50;;;-0.42;73.52
71149;BME280;59072;42.144;25.200;2023-02-13T03:04:48;102143.44;;;0.22;71.54
71149;BME280;59072;42.144;25.200;2023-02-13T03:07:34;102132.34;;;0.31;70.87
71149;BME280;59072;42.144;25.200;2023-02-13T03:10:11;102145.34;;;0.32;68.61
71149;BME280;59072;42.144;25.200;2023-02-13T03:15:56;102122.50;;;-0.62;72.64
71149;BME280;59072;42.144;25.200;2023-02-13T03:18:50;102128.28;;;-0.42;72.59
71149;BME280;59072;42.144;25.200;2023-02-13T03:21:52;102163.19;;;-0.42;72.62
71149;BME280;59072;42.144;25.200;2023-02-13T03:25:06;102159.63;;;0.01;70.70
71149;BME280;59072;42.144;25.200;2023-02-13T03:35:56;102151.19;;;-0.31;70.99
71149;BME280;59072;42.144;25.200;2023-02-13T03:38:46;102141.09;;;-0.37;70.08
71149;BME280;59072;42.144;25.200;2023-02-13T03:41:24;102157.47;;;-0.34;70.93
71149;BME280;59072;42.144;25.200;2023-02-13T03:44:07;102155.88;;;-0.22;71.79
71149;BME280;59072;42.144;25.200;2023-02-13T03:46:37;102151.47;;;-0.22;70.91
71149;BME280;59072;42.144;25.200;2023-02-13T03:49:06;102156.13;;;-0.27;70.51
71149;BME280;59072;42.144;25.200;2023-02-13T03:52:24;102149.75;;;-0.23;71.61
71149;BME280;59072;42.144;25.200;2023-02-13T03:55:00;102140.69;;;-0.31;71.15
71149;BME280;59072;42.144;25.200;2023-02-13T03:57:46;102135.13;;;-0.54;71.59
71149;BME280;59072;42.144;25.200;2023-02-13T04:00:41;102159.25;;;-0.34;73.22
71149;BME280;59072;42.144;25.200;2023-02-13T04:03:29;102145.69;;;-0.41;72.48
71149;BME280;59072;42.144;25.200;2023-02-13T04:06:15;102141.84;;;-0.50;72.62
71149;BME280;59072;42.144;25.200;2023-02-13T04:08:41;102157.31;;;-0.59;73.38
71149;BME280;59072;42.144;25.200;2023-02-13T04:11:16;102149.56;;;-0.61;73.97
71149;BME280;59072;42.144;25.200;2023-02-13T04:13:49;102169.09;;;-0.52;73.68
71149;BME280;59072;42.144;25.200;2023-02-13T04:16:26;102147.38;;;-0.54;73.35
71149;BME280;59072;42.144;25.200;2023-02-13T04:18:55;102152.72;;;-0.56;72.88
71149;BME280;59072;42.144;25.200;2023-02-13T04:21:21;102169.38;;;-0.28;72.53
71149;BME280;59072;42.144;25.200;2023-02-13T04:23:47;102154.00;;;-0.20;71.67
71149;BME280;59072;42.144;25.200;2023-02-13T04:26:20;102173.13;;;-0.47;72.66
71149;BME280;59072;42.144;25.200;2023-02-13T04:28:46;102155.34;;;-0.85;74.75
71149;BME280;59072;42.144;25.200;2023-02-13T04:31:12;102176.13;;;-0.38;72.40
71149;BME280;59072;42.144;25.200;2023-02-13T04:33:37;102137.00;;;-0.99;74.45
71149;BME280;59072;42.144;25.200;2023-02-13T04:36:03;102163.41;;;-0.88;74.19
71149;BME280;59072;42.144;25.200;2023-02-13T04:38:29;102166.19;;;-0.62;73.33
71149;BME280;59072;42.144;25.200;2023-02-13T04:40:54;102148.44;;;-1.00;74.36
71149;BME280;59072;42.144;25.200;2023-02-13T04:43:20;102175.00;;;-1.06;74.83
71149;BME280;59072;42.144;25.200;2023-02-13T04:45:50;102157.94;;;-1.13;74.48
71149;BME280;59072;42.144;25.200;2023-02-13T04:48:16;102174.88;;;-1.05;74.67
71149;BME280;59072;42.144;25.200;2023-02-13T04:50:41;102162.72;;;-1.20;74.59
71149;BME280;59072;42.144;25.200;2023-02-13T04:53:07;102166.06;;;-1.18;74.10
71149;BME280;59072;42.144;25.200;2023-02-13T04:55:32;102163.00;;;-1.10;73.88
71149;BME280;59072;42.144;25.200;2023-02-13T04:57:57;102153.38;;;-1.10;72.72
71149;BME280;59072;42.144;25.200;2023-02-13T05:00:28;102178.16;;;-1.01;72.86
71149;BME280;59072;42.144;25.200;2023-02-13T05:02:59;102158.16;;;-1.16;73.83
71149;BME280;59072;42.144;25.200;2023-02-13T05:05:25;102169.91;;;-1.09;73.59
71149;BME280;59072;42.144;25.200;2023-02-13T05:07:50;102182.28;;;-0.83;72.52
71149;BME280;59072;42.144;25.200;2023-02-13T05:10:16;102161.97;;;-1.08;73.12
71149;BME280;59072;42.144;25.200;2023-02-13T05:12:41;102171.13;;;-1.15;73.45
71149;BME280;59072;42.144;25.200;2023-02-13T05:15:07;102194.25;;;-0.93;73.29
71149;BME280;59072;42.144;25.200;2023-02-13T05:17:32;102181.91;;;-1.05;73.57
71149;BME280;59072;42.144;25.200;2023-02-13T05:19:58;102196.22;;;-0.96;72.89
71149;BME280;59072;42.144;25.200;2023-02-13T05:22:24;102206.59;;;-0.95;73.18
71149;BME280;59072;42.144;25.200;2023-02-13T05:25:08;102191.97;;;-1.13;73.46
71149;BME280;59072;42.144;25.200;2023-02-13T05:27:33;102203.22;;;-0.97;72.87
71149;BME280;59072;42.144;25.200;2023-02-13T05:29:58;102207.75;;;-0.70;72.23
71149;BME280;59072;42.144;25.200;2023-02-13T05:32:24;102199.69;;;-0.96;71.14
71149;BME280;59072;42.144;25.200;2023-02-13T05:34:49;102214.91;;;-1.33;71.91
71149;BME280;59072;42.144;25.200;2023-02-13T05:37:15;102218.84;;;-1.40;72.51
71149;BME280;59072;42.144;25.200;2023-02-13T05:39:40;102204.53;;;-1.96;74.12
71149;BME280;59072;42.144;25.200;2023-02-13T05:42:06;102217.19;;;-1.73;73.94
71149;BME280;59072;42.144;25.200;2023-02-13T05:44:31;102227.75;;;-1.74;75.54
71149;BME280;59072;42.144;25.200;2023-02-13T05:46:57;102230.50;;;-1.62;74.69
71149;BME280;59072;42.144;25.200;2023-02-13T05:49:22;102207.78;;;-1.45;74.65
71149;BME280;59072;42.144;25.200;2023-02-13T05:51:48;102190.84;;;-1.54;74.03
71149;BME280;59072;42.144;25.200;2023-02-13T05:54:16;102219.44;;;-1.51;74.82
71149;BME280;59072;42.144;25.200;2023-02-13T05:56:41;102196.66;;;-1.49;74.32
71149;BME280;59072;42.144;25.200;2023-02-13T05:59:07;102235.19;;;-1.20;74.71
71149;BME280;59072;42.144;25.200;2023-02-13T06:01:32;102241.09;;;-1.03;74.98
71149;BME280;59072;42.144;25.200;2023-02-13T06:03:58;102209.78;;;-1.04;74.68
71149;BME280;59072;42.144;25.200;2023-02-13T06:06:23;102223.28;;;-0.96;74.59
71149;BME280;59072;42.144;25.200;2023-02-13T06:08:50;102239.00;;;-0.96;74.73
71149;BME280;59072;42.144;25.200;2023-02-13T06:11:15;102241.03;;;-0.87;75.89
71149;BME280;59072;42.144;25.200;2023-02-13T06:13:40;102240.59;;;-0.79;75.75
71149;BME280;59072;42.144;25.200;2023-02-13T06:16:07;102237.69;;;-0.74;76.33
71149;BME280;59072;42.144;25.200;2023-02-13T06:18:33;102231.91;;;-0.65;75.85
71149;BME280;59072;42.144;25.200;2023-02-13T06:20:59;102230.97;;;-0.50;75.68
71149;BME280;59072;42.144;25.200;2023-02-13T06:23:25;102224.53;;;-0.44;75.48
71149;BME280;59072;42.144;25.200;2023-02-13T06:25:50;102243.31;;;-0.23;74.67
71149;BME280;59072;42.144;25.200;2023-02-13T06:28:15;102245.63;;;-0.04;73.01
71149;BME280;59072;42.144;25.200;2023-02-13T06:30:41;102241.03;;;-0.01;73.60
71149;BME280;59072;42.144;25.200;2023-02-13T06:33:07;102242.44;;;0.05;73.88
71149;BME280;59072;42.144;25.200;2023-02-13T06:35:32;102246.25;;;0.14;72.91
71149;BME280;59072;42.144;25.200;2023-02-13T06:37:58;102234.38;;;0.23;72.78
71149;BME280;59072;42.144;25.200;2023-02-13T06:40:23;102245.91;;;0.47;73.14
71149;BME280;59072;42.144;25.200;2023-02-13T06:42:49;102244.84;;;0.50;72.81
71149;BME280;59072;42.144;25.200;2023-02-13T06:45:14;102246.53;;;0.51;72.71
71149;BME280;59072;42.144;25.200;2023-02-13T06:47:44;102237.72;;;0.52;72.70
71149;BME280;59072;42.144;25.200;2023-02-13T06:50:11;102223.22;;;0.86;71.94
71149;BME280;59072;42.144;25.200;2023-02-13T06:52:37;102245.31;;;1.09;71.28
71149;BME280;59072;42.144;25.200;2023-02-13T06:55:03;102224.38;;;0.82;72.26
71149;BME280;59072;42.144;25.200;2023-02-13T06:57:29;102232.50;;;1.05;72.18
71149;BME280;59072;42.144;25.200;2023-02-13T06:59:58;102214.16;;;0.77;71.26
71149;BME280;59072;42.144;25.200;2023-02-13T07:02:23;102226.59;;;1.01;70.43
71149;BME280;59072;42.144;25.200;2023-02-13T07:04:49;102205.06;;;1.09;69.85
71149;BME280;59072;42.144;25.200;2023-02-13T07:07:14;102236.31;;;1.39;69.36
71149;BME280;59072;42.144;25.200;2023-02-13T07:09:40;102230.19;;;1.26;69.18
71149;BME280;59072;42.144;25.200;2023-02-13T07:12:05;102235.44;;;1.38;69.60
71149;BME280;59072;42.144;25.200;2023-02-13T07:14:31;102239.63;;;1.67;69.96
71149;BME280;59072;42.144;25.200;2023-02-13T07:16:57;102226.19;;;1.58;69.58
71149;BME280;59072;42.144;25.200;2023-02-13T07:19:22;102232.56;;;1.67;68.66
71149;BME280;59072;42.144;25.200;2023-02-13T07:21:48;102233.72;;;1.89;67.64
71149;BME280;59072;42.144;25.200;2023-02-13T07:24:13;102245.22;;;2.12;66.84
71149;BME280;59072;42.144;25.200;2023-02-13T07:26:38;102239.06;;;2.24;66.70
71149;BME280;59072;42.144;25.200;2023-02-13T07:29:04;102234.91;;;2.33;66.52
71149;BME280;59072;42.144;25.200;2023-02-13T07:31:33;102220.84;;;2.45;66.30
71149;BME280;59072;42.144;25.200;2023-02-13T07:33:59;102227.28;;;2.65;65.34
71149;BME280;59072;42.144;25.200;2023-02-13T07:36:25;102247.09;;;2.71;65.10
71149;BME280;59072;42.144;25.200;2023-02-13T07:38:51;102241.78;;;3.06;63.49
71149;BME280;59072;42.144;25.200;2023-02-13T07:41:19;102235.94;;;3.03;63.25
71149;BME280;59072;42.144;25.200;2023-02-13T07:43:52;102226.03;;;3.17;64.01
71149;BME280;59072;42.144;25.200;2023-02-13T07:46:18;102238.75;;;3.46;62.77
71149;BME280;59072;42.144;25.200;2023-02-13T07:48:44;102222.34;;;3.54;62.72
71149;BME280;59072;42.144;25.200;2023-02-13T07:51:09;102240.06;;;3.86;61.42
71149;BME280;59072;42.144;25.200;2023-02-13T07:53:34;102226.75;;;3.76;61.33
71149;BME280;59072;42.144;25.200;2023-02-13T07:56:07;102232.50;;;3.92;60.46
71149;BME280;59072;42.144;25.200;2023-02-13T07:58:33;102237.88;;;4.02;60.39
71149;BME280;59072;42.144;25.200;2023-02-13T08:01:05;102222.66;;;4.06;60.21
71149;BME280;59072;42.144;25.200;2023-02-13T08:03:30;102202.44;;;4.27;59.13
71149;BME280;59072;42.144;25.200;2023-02-13T08:05:55;102219.94;;;4.28;59.46
71149;BME280;59072;42.144;25.200;2023-02-13T08:08:21;102231.44;;;4.50;58.01
71149;BME280;59072;42.144;25.200;2023-02-13T08:10:46;102236.31;;;4.87;56.80
71149;BME280;59072;42.144;25.200;2023-02-13T08:13:31;102221.47;;;4.74;57.56
71149;BME280;59072;42.144;25.200;2023-02-13T08:15:56;102216.56;;;4.91;56.17
71149;BME280;59072;42.144;25.200;2023-02-13T08:18:22;102211.81;;;4.85;55.09
71149;BME280;59072;42.144;25.200;2023-02-13T08:20:47;102220.97;;;4.80;55.48
71149;BME280;59072;42.144;25.200;2023-02-13T08:23:12;102212.44;;;4.98;54.76
71149;BME280;59072;42.144;25.200;2023-02-13T08:25:38;102231.41;;;5.55;53.80
71149;BME280;59072;42.144;25.200;2023-02-13T08:28:04;102235.69;;;5.46;53.47
71149;BME280;59072;42.144;25.200;2023-02-13T08:30:30;102230.56;;;5.54;53.02
71149;BME280;59072;42.144;25.200;2023-02-13T08:32:55;102207.09;;;5.40;53.04
71149;BME280;59072;42.144;25.200;2023-02-13T08:35:22;102201.69;;;5.82;52.20
71149;BME280;59072;42.144;25.200;2023-02-13T08:37:54;102217.91;;;5.98;50.24
71149;BME280;59072;42.144;25.200;2023-02-13T08:40:20;102208.34;;;6.17;50.20
71149;BME280;59072;42.144;25.200;2023-02-13T08:42:45;102223.56;;;6.24;48.72
71149;BME280;59072;42.144;25.200;2023-02-13T08:45:10;102209.34;;;6.45;48.50
71149;BME280;59072;42.144;25.200;2023-02-13T08:47:37;102200.97;;;6.59;47.99
71149;BME280;59072;42.144;25.200;2023-02-13T08:50:04;102208.94;;;6.69;47.83
71149;BME280;59072;42.144;25.200;2023-02-13T08:52:30;102196.22;;;6.63;45.92
71149;BME280;59072;42.144;25.200;2023-02-13T08:54:55;102209.63;;;6.52;48.46
71149;BME280;59072;42.144;25.200;2023-02-13T08:57:21;102212.97;;;6.93;45.82
71149;BME280;59072;42.144;25.200;2023-02-13T08:59:46;102202.50;;;6.81;45.78
71149;BME280;59072;42.144;25.200;2023-02-13T09:02:12;102206.19;;;7.28;44.64
71149;BME280;59072;42.144;25.200;2023-02-13T09:04:38;102187.53;;;7.00;44.65
71149;BME280;59072;42.144;25.200;2023-02-13T09:07:04;102194.22;;;7.04;44.88
71149;BME280;59072;42.144;25.200;2023-02-13T09:09:29;102187.72;;;7.63;44.94
71149;BME280;59072;42.144;25.200;2023-02-13T09:11:55;102198.13;;;7.47;45.93
71149;BME280;59072;42.144;25.200;2023-02-13T09:14:22;102196.06;;;7.41;44.27
71149;BME280;59072;42.144;25.200;2023-02-13T09:16:48;102196.03;;;7.78;45.38
71149;BME280;59072;42.144;25.200;2023-02-13T09:19:14;102193.63;;;7.85;44.69
71149;BME280;59072;42.144;25.200;2023-02-13T09:21:39;102198.97;;;8.21;45.12
71149;BME280;59072;42.144;25.200;2023-02-13T09:24:10;102195.41;;;8.12;43.60
71149;BME280;59072;42.144;25.200;2023-02-13T09:26:35;102192.84;;;8.20;43.99
71149;BME280;59072;42.144;25.200;2023-02-13T09:29:00;102185.25;;;8.08;44.80
71149;BME280;59072;42.144;25.200;2023-02-13T09:31:26;102168.16;;;8.10;44.84
71149;BME280;59072;42.144;25.200;2023-02-13T09:33:51;102163.75;;;8.19;44.48
71149;BME280;59072;42.144;25.200;2023-02-13T09:36:22;102168.38;;;8.17;44.22
71149;BME280;59072;42.144;25.200;2023-02-13T09:38:54;102161.56;;;8.50;44.80
71149;BME280;59072;42.144;25.200;2023-02-13T09:44:00;102161.66;;;8.58;44.50
71149;BME280;59072;42.144;25.200;2023-02-13T09:46:34;102158.06;;;8.50;44.50
71149;BME280;59072;42.144;25.200;2023-02-13T09:49:11;102154.03;;;8.45;45.49
71149;BME280;59072;42.144;25.200;2023-02-13T09:51:40;102138.84;;;8.20;45.29
71149;BME280;59072;42.144;25.200;2023-02-13T09:54:07;102151.69;;;8.42;45.88
71149;BME280;59072;42.144;25.200;2023-02-13T09:59:17;102153.84;;;9.17;44.28
71149;BME280;59072;42.144;25.200;2023-02-13T10:01:51;102143.31;;;8.55;44.89
71149;BME280;59072;42.144;25.200;2023-02-13T10:15:28;102103.47;;;9.16;44.02
71149;BME280;59072;42.144;25.200;2023-02-13T10:18:09;102117.19;;;9.37;44.98
71149;BME280;59072;42.144;25.200;2023-02-13T10:20:53;102091.09;;;9.49;42.92
71149;BME280;59072;42.144;25.200;2023-02-13T10:23:40;102097.88;;;10.19;42.21
71149;BME280;59072;42.144;25.200;2023-02-13T10:26:21;102096.56;;;10.39;41.28
71149;BME280;59072;42.144;25.200;2023-02-13T10:28:55;102081.47;;;9.56;42.57
71149;BME280;59072;42.144;25.200;2023-02-13T10:31:42;102083.84;;;9.84;42.25
71149;BME280;59072;42.144;25.200;2023-02-13T10:34:10;102082.88;;;10.18;41.71
71149;BME280;59072;42.144;25.200;2023-02-13T10:36:43;102077.53;;;10.67;41.14
71149;BME280;59072;42.144;25.200;2023-02-13T10:39:23;102080.47;;;10.89;40.54
71149;BME280;59072;42.144;25.200;2023-02-13T10:41:52;102061.88;;;10.06;42.38
71149;BME280;59072;42.144;25.200;2023-02-13T10:56:25;102044.03;;;12.51;37.55
71149;BME280;59072;42.144;25.200;2023-02-13T11:03:24;102023.09;;;12.69;36.73
71149;BME280;59072;42.144;25.200;2023-02-13T11:05:51;102025.34;;;12.27;37.84
71149;BME280;59072;42.144;25.200;2023-02-13T11:10:47;102025.00;;;12.60;36.90
71149;BME280;59072;42.144;25.200;2023-02-13T11:13:15;102014.78;;;12.49;36.63
71149;BME280;59072;42.144;25.200;2023-02-13T11:15:41;102004.66;;;11.60;37.71
71149;BME280;59072;42.144;25.200;2023-02-13T11:18:19;101990.94;;;11.63;37.70
71149;BME280;59072;42.144;25.200;2023-02-13T11:20:45;101998.88;;;12.48;37.58
71149;BME280;59072;42.144;25.200;2023-02-13T11:23:32;102002.41;;;12.78;36.95
71149;BME280;59072;42.144;25.200;2023-02-13T11:26:34;102005.22;;;13.06;35.92
71149;BME280;59072;42.144;25.200;2023-02-13T11:29:05;101981.06;;;12.84;36.39
71149;BME280;59072;42.144;25.200;2023-02-13T11:31:39;101975.84;;;13.49;35.09
71149;BME280;59072;42.144;25.200;2023-02-13T11:34:25;101980.91;;;13.87;34.81
71149;BME280;59072;42.144;25.200;2023-02-13T11:39:39;101959.31;;;13.09;35.14
71149;BME280;59072;42.144;25.200;2023-02-13T11:42:17;101978.66;;;12.90;35.69
71149;BME280;59072;42.144;25.200;2023-02-13T11:44:47;101957.34;;;12.66;35.82
71149;BME280;59072;42.144;25.200;2023-02-13T11:47:13;101938.00;;;13.01;36.14
71149;BME280;59072;42.144;25.200;2023-02-13T11:49:44;101955.53;;;13.03;35.49
71149;BME280;59072;42.144;25.200;2023-02-13T11:52:31;101930.59;;;13.89;34.48
71149;BME280;59072;42.144;25.200;2023-02-13T11:55:04;101937.50;;;13.77;33.94
71149;BME280;59072;42.144;25.200;2023-02-13T11:57:35;101944.31;;;13.15;35.51
71149;BME280;59072;42.144;25.200;2023-02-13T12:00:26;101946.97;;;13.30;35.01
71149;BME280;59072;42.144;25.200;2023-02-13T12:02:52;101920.19;;;13.30;34.40
71149;BME280;59072;42.144;25.200;2023-02-13T12:05:26;101935.41;;;13.72;34.09
71149;BME280;59072;42.144;25.200;2023-02-13T12:07:57;101920.13;;;14.29;33.86
71149;BME280;59072;42.144;25.200;2023-02-13T12:10:27;101932.09;;;14.61;32.69
71149;BME280;59072;42.144;25.200;2023-02-13T12:13:16;101928.63;;;14.39;32.96
71149;BME280;59072;42.144;25.200;2023-02-13T12:15:45;101914.75;;;14.29;32.67
71149;BME280;59072;42.144;25.200;2023-02-13T12:18:31;101924.91;;;14.75;31.99
71149;BME280;59072;42.144;25.200;2023-02-13T12:26:28;101914.81;;;14.42;32.44
71149;BME280;59072;42.144;25.200;2023-02-13T12:39:35;101897.66;;;16.32;31.03
71149;BME280;59072;42.144;25.200;2023-02-13T12:42:20;101892.09;;;16.78;29.06
71149;BME280;59072;42.144;25.200;2023-02-13T12:47:31;101891.16;;;16.98;28.69
71149;BME280;59072;42.144;25.200;2023-02-13T12:52:53;101895.06;;;16.63;29.23
71149;BME280;59072;42.144;25.200;2023-02-13T13:03:36;101885.31;;;15.97;28.51
71149;BME280;59072;42.144;25.200;2023-02-13T13:06:40;101870.88;;;15.32;29.79
71149;BME280;59072;42.144;25.200;2023-02-13T13:14:45;101877.69;;;16.53;27.67
71149;BME280;59072;42.144;25.200;2023-02-13T13:23:19;101866.38;;;18.26;25.26
71149;BME280;59072;42.144;25.200;2023-02-13T13:28:22;101858.75;;;18.72;25.39
71149;BME280;59072;42.144;25.200;2023-02-13T13:30:49;101851.63;;;19.32;24.43
71149;BME280;59072;42.144;25.200;2023-02-13T13:33:22;101857.78;;;19.86;23.89
71149;BME280;59072;42.144;25.200;2023-02-13T13:41:14;101835.25;;;20.78;22.66
71149;BME280;59072;42.144;25.200;2023-02-13T13:51:15;101844.56;;;22.55;20.40
71149;BME280;59072;42.144;25.200;2023-02-13T13:59:24;101835.66;;;22.92;18.79
71149;BME280;59072;42.144;25.200;2023-02-13T14:07:46;101819.25;;;23.46;18.38
71149;BME280;59072;42.144;25.200;2023-02-13T14:12:47;101831.81;;;24.00;17.97
71149;BME280;59072;42.144;25.200;2023-02-13T14:26:36;101813.16;;;22.97;17.29
71149;BME280;59072;42.144;25.200;2023-02-13T14:31:35;101810.84;;;22.29;17.85
71149;BME280;59072;42.144;25.200;2023-02-13T14:36:46;101791.22;;;23.51;17.31
71149;BME280;59072;42.144;25.200;2023-02-13T14:39:31;101805.00;;;23.77;17.78
71149;BME280;59072;42.144;25.200;2023-02-13T14:42:01;101807.22;;;23.85;17.38
71149;BME280;59072;42.144;25.200;2023-02-13T14:44:33;101799.38;;;23.46;16.90
71149;BME280;59072;42.144;25.200;2023-02-13T14:47:03;101783.56;;;23.91;16.35
71149;BME280;59072;42.144;25.200;2023-02-13T14:49:32;101795.16;;;23.71;16.61
71149;BME280;59072;42.144;25.200;2023-02-13T14:52:03;101783.72;;;22.34;17.62
71149;BME280;59072;42.144;25.200;2023-02-13T14:57:04;101795.00;;;21.77;18.39
71149;BME280;59072;42.144;25.200;2023-02-13T14:59:34;101776.75;;;20.99;18.76
71149;BME280;59072;42.144;25.200;2023-02-13T15:02:12;101779.09;;;18.44;21.04
71149;BME280;59072;42.144;25.200;2023-02-13T15:04:42;101776.53;;;16.95;23.28
71149;BME280;59072;42.144;25.200;2023-02-13T15:07:16;101777.25;;;16.07;24.22
71149;BME280;59072;42.144;25.200;2023-02-13T15:09:49;101768.94;;;15.37;25.24
71149;BME280;59072;42.144;25.200;2023-02-13T15:12:42;101767.06;;;14.57;26.29
71149;BME280;59072;42.144;25.200;2023-02-13T15:15:31;101765.84;;;14.12;27.54
71149;BME280;59072;42.144;25.200;2023-02-13T15:18:10;101742.31;;;13.59;28.99
71149;BME280;59072;42.144;25.200;2023-02-13T15:20:42;101744.16;;;13.02;29.75
71149;BME280;59072;42.144;25.200;2023-02-13T15:23:36;101761.72;;;12.61;30.77
71149;BME280;59072;42.144;25.200;2023-02-13T15:26:05;101755.03;;;12.51;30.65
71149;BME280;59072;42.144;25.200;2023-02-13T15:28:33;101756.66;;;12.30;31.13
71149;BME280;59072;42.144;25.200;2023-02-13T15:31:22;101735.59;;;12.05;31.96
71149;BME280;59072;42.144;25.200;2023-02-13T15:33:49;101750.63;;;11.92;32.88
71149;BME280;59072;42.144;25.200;2023-02-13T15:36:21;101740.56;;;11.49;32.71
71149;BME280;59072;42.144;25.200;2023-02-13T15:39:02;101749.31;;;11.43;33.37
71149;BME280;59072;42.144;25.200;2023-02-13T15:41:34;101728.25;;;10.72;35.34
71149;BME280;59072;42.144;25.200;2023-02-13T15:44:02;101736.66;;;10.69;34.74
71149;BME280;59072;42.144;25.200;2023-02-13T15:46:30;101740.38;;;10.60;34.66